Time;durP1;ratioP1;P1;durP2;ratioP2;P2;SDS_P1;SDS_P2;PMS_P1;PMS_P2;Temp;Humidity;BMP_temperature;BMP_pressure;BME280_temperature;BME280_humidity;BME280_pressure;Samples;Min_cycle;Max_cycle;Signal;HPM_P1;HPM_P2
2023/08/27 00:00:27;;;;;;;2.10;1.50;;;13.60;99.90;;;;;;4967045;28;20137;-62
2023/08/27 00:02:54;;;;;;;1.55;1.20;;;13.50;99.90;;;;;;4963582;28;20062;-63
2023/08/27 00:05:21;;;;;;;3.55;1.20;;;13.50;99.90;;;;;;4970393;28;20409;-64
2023/08/27 00:07:48;;;;;;;6.13;1.90;;;13.40;99.90;;;;;;4969710;28;20046;-65
2023/08/27 00:10:15;;;;;;;5.35;1.42;;;13.40;99.90;;;;;;4965862;28;20471;-62
2023/08/27 00:12:42;;;;;;;3.00;1.67;;;13.50;99.90;;;;;;4970236;28;20047;-63
2023/08/27 00:15:09;;;;;;;2.80;1.45;;;13.40;99.90;;;;;;4973635;28;20496;-64
2023/08/27 00:17:36;;;;;;;2.92;1.20;;;13.40;99.90;;;;;;4968821;28;20516;-64
2023/08/27 00:20:09;;;;;;;4.88;1.95;;;13.40;99.90;;;;;;4968101;28;20109;-63
2023/08/27 00:22:37;;;;;;;3.15;1.70;;;13.30;99.90;;;;;;4965181;28;20043;-63
2023/08/27 00:25:04;;;;;;;2.78;1.33;;;13.20;99.90;;;;;;4966188;28;20062;-64
2023/08/27 00:27:33;;;;;;;2.45;1.15;;;13.20;99.90;;;;;;4967768;28;20050;-63
2023/08/27 00:30:00;;;;;;;4.38;1.88;;;13.20;99.90;;;;;;4955100;28;20050;-65
2023/08/27 00:32:28;;;;;;;2.70;1.60;;;13.20;99.90;;;;;;4972460;28;20078;-63
2023/08/27 00:34:55;;;;;;;2.75;1.60;;;13.10;99.90;;;;;;4971171;28;20126;-64
2023/08/27 00:37:22;;;;;;;2.28;1.50;;;13.10;99.90;;;;;;4964344;28;20054;-64
2023/08/27 00:39:49;;;;;;;5.75;2.58;;;13.10;99.90;;;;;;4967236;28;20047;-63
2023/08/27 00:42:15;;;;;;;4.30;1.52;;;13.00;99.90;;;;;;4968868;28;20059;-63
2023/08/27 00:44:42;;;;;;;3.28;1.45;;;13.00;99.90;;;;;;4969816;28;20540;-63
2023/08/27 00:47:09;;;;;;;4.88;1.73;;;13.00;99.90;;;;;;4969742;28;20333;-64
2023/08/27 00:49:37;;;;;;;2.83;1.80;;;12.90;99.90;;;;;;4940007;28;20054;-63
2023/08/27 00:52:04;;;;;;;7.03;1.92;;;12.90;99.90;;;;;;4966653;28;20117;-64
2023/08/27 00:54:32;;;;;;;4.43;2.25;;;13.00;99.90;;;;;;4952028;28;20528;-63
2023/08/27 00:56:58;;;;;;;3.22;1.77;;;13.00;99.90;;;;;;4966361;28;20039;-64
2023/08/27 00:59:25;;;;;;;3.97;2.13;;;13.00;99.90;;;;;;4968995;28;20082;-63
2023/08/27 01:01:52;;;;;;;4.38;2.05;;;13.10;99.90;;;;;;4977402;28;20695;-64
2023/08/27 01:04:19;;;;;;;3.28;2.03;;;13.10;99.90;;;;;;4967556;28;20054;-64
2023/08/27 01:06:46;;;;;;;5.05;1.75;;;13.10;99.90;;;;;;4965576;28;20038;-64
2023/08/27 01:09:32;;;;;;;4.07;1.90;;;13.10;99.90;;;;;;4954079;28;20058;-64
2023/08/27 01:12:14;;;;;;;3.67;2.10;;;13.10;99.90;;;;;;4966029;28;20421;-64
2023/08/27 01:14:43;;;;;;;4.15;1.95;;;13.10;99.90;;;;;;4969638;28;20125;-64
2023/08/27 01:17:10;;;;;;;3.45;1.63;;;13.20;99.90;;;;;;4977893;28;20074;-63
2023/08/27 01:19:37;;;;;;;2.97;1.70;;;13.20;99.90;;;;;;4968268;28;20050;-64
2023/08/27 01:22:04;;;;;;;2.90;2.00;;;13.20;99.90;;;;;;4963034;28;20079;-64
2023/08/27 01:24:30;;;;;;;5.05;1.90;;;13.20;99.90;;;;;;4968302;28;20110;-63
2023/08/27 01:27:03;;;;;;;8.90;2.80;;;13.20;99.90;;;;;;4968431;28;20051;-63
2023/08/27 01:29:45;;;;;;;10.32;2.10;;;13.20;99.90;;;;;;4952869;28;20136;-63
2023/08/27 01:32:21;;;;;;;5.68;1.95;;;13.20;99.90;;;;;;4936363;28;20051;-64
2023/08/27 01:34:48;;;;;;;4.82;2.58;;;13.20;99.90;;;;;;4971309;28;20089;-63
2023/08/27 01:37:15;;;;;;;4.70;2.05;;;13.20;99.90;;;;;;4970875;28;20054;-63
2023/08/27 01:39:44;;;;;;;5.78;2.30;;;13.30;99.90;;;;;;4953765;28;20046;-63
2023/08/27 01:42:11;;;;;;;5.03;2.00;;;13.30;99.90;;;;;;4971518;28;20047;-63
2023/08/27 01:44:38;;;;;;;3.97;2.17;;;13.30;99.90;;;;;;4971195;28;20429;-63
2023/08/27 01:47:05;;;;;;;3.15;2.15;;;13.30;99.90;;;;;;4970185;28;20138;-63
2023/08/27 01:49:32;;;;;;;3.83;2.03;;;13.40;99.90;;;;;;4967412;28;20102;-63
2023/08/27 01:51:59;;;;;;;5.30;2.10;;;13.40;99.90;;;;;;4625111;28;10000183;-63
2023/08/27 01:54:26;;;;;;;8.25;2.60;;;13.40;99.90;;;;;;4968719;28;20065;-63
2023/08/27 01:56:53;;;;;;;3.53;2.50;;;13.30;99.90;;;;;;4970908;28;20039;-63
2023/08/27 01:59:19;;;;;;;4.82;2.20;;;13.30;99.90;;;;;;4970793;28;20350;-64
2023/08/27 02:01:46;;;;;;;6.75;3.20;;;13.30;99.90;;;;;;4970562;28;20050;-63
2023/08/27 02:04:13;;;;;;;5.97;2.10;;;13.30;99.90;;;;;;4969541;28;20060;-64
2023/08/27 02:06:40;;;;;;;7.63;2.85;;;13.30;99.90;;;;;;4970120;28;20109;-63
2023/08/27 02:09:07;;;;;;;5.10;2.60;;;13.30;99.90;;;;;;4972203;28;20050;-62
2023/08/27 02:11:34;;;;;;;6.18;2.42;;;13.30;99.90;;;;;;4970476;28;20097;-63
2023/08/27 02:14:01;;;;;;;7.80;2.65;;;13.30;99.90;;;;;;4960314;28;20051;-63
2023/08/27 02:16:27;;;;;;;4.53;2.40;;;13.30;99.90;;;;;;4971136;28;20070;-63
2023/08/27 02:18:54;;;;;;;5.63;2.78;;;13.30;99.90;;;;;;4972921;28;20065;-64
2023/08/27 02:21:21;;;;;;;7.05;2.53;;;13.30;99.90;;;;;;4971987;28;20192;-63
2023/08/27 02:23:48;;;;;;;8.00;2.38;;;13.20;99.90;;;;;;4970875;28;20050;-63
2023/08/27 02:26:14;;;;;;;5.78;2.95;;;13.20;99.90;;;;;;4969830;28;20365;-64
2023/08/27 02:28:41;;;;;;;3.28;2.13;;;13.20;99.90;;;;;;4969578;28;20498;-64
2023/08/27 02:31:08;;;;;;;8.25;2.00;;;13.20;99.90;;;;;;4970179;28;20113;-64
2023/08/27 02:33:35;;;;;;;3.38;1.80;;;13.20;99.90;;;;;;4953188;28;20389;-64
2023/08/27 02:36:02;;;;;;;4.72;2.45;;;13.10;99.90;;;;;;4968800;28;20055;-64
2023/08/27 02:38:29;;;;;;;4.55;1.95;;;13.10;99.90;;;;;;4948915;28;20050;-64
2023/08/27 02:40:56;;;;;;;5.30;2.40;;;13.10;99.90;;;;;;4970101;28;20050;-63
2023/08/27 02:43:22;;;;;;;8.25;2.30;;;13.00;99.90;;;;;;4970025;28;20042;-64
2023/08/27 02:45:50;;;;;;;3.72;2.53;;;13.00;99.90;;;;;;4968461;28;20102;-62
2023/08/27 02:48:17;;;;;;;2.53;1.95;;;13.00;99.90;;;;;;4969895;28;20054;-63
2023/08/27 02:50:44;;;;;;;5.63;2.35;;;13.00;99.90;;;;;;4969803;28;20054;-63
2023/08/27 02:53:11;;;;;;;4.00;2.17;;;12.90;99.90;;;;;;4969322;28;20058;-63
2023/08/27 02:55:37;;;;;;;6.72;2.30;;;12.80;99.90;;;;;;4966707;28;20353;-64
2023/08/27 02:58:04;;;;;;;3.45;2.33;;;12.80;99.90;;;;;;4968558;28;20536;-63
2023/08/27 03:00:31;;;;;;;4.50;2.83;;;12.80;99.90;;;;;;4969806;28;20128;-64
2023/08/27 03:02:58;;;;;;;6.20;2.47;;;12.70;99.90;;;;;;4969369;28;20429;-63
2023/08/27 03:05:25;;;;;;;3.00;2.22;;;12.70;99.90;;;;;;4969715;28;20476;-64
2023/08/27 03:07:52;;;;;;;5.65;1.95;;;12.60;99.90;;;;;;4969285;28;20079;-64
2023/08/27 03:10:20;;;;;;;3.78;1.95;;;12.60;99.90;;;;;;4968420;28;20038;-63
2023/08/27 03:12:47;;;;;;;3.85;1.92;;;12.60;99.90;;;;;;4969458;28;20051;-64
2023/08/27 03:15:13;;;;;;;4.95;1.77;;;12.60;99.90;;;;;;4968597;28;20461;-63
2023/08/27 03:17:40;;;;;;;4.25;2.35;;;12.60;99.90;;;;;;4966587;28;20047;-65
2023/08/27 03:20:08;;;;;;;3.40;1.98;;;12.60;99.90;;;;;;4969280;28;20051;-63
2023/08/27 03:22:34;;;;;;;4.78;2.17;;;12.60;99.90;;;;;;4968076;28;20043;-64
2023/08/27 03:25:01;;;;;;;8.13;1.98;;;12.50;99.90;;;;;;4969563;28;20166;-62
2023/08/27 03:27:29;;;;;;;4.65;1.75;;;12.50;99.90;;;;;;4969310;28;20317;-63
2023/08/27 03:29:56;;;;;;;4.25;2.47;;;12.50;99.90;;;;;;4963254;28;20054;-63
2023/08/27 03:32:22;;;;;;;3.80;1.92;;;12.40;99.90;;;;;;4964411;28;20174;-63
2023/08/27 03:34:49;;;;;;;4.10;2.03;;;12.40;99.90;;;;;;4967921;28;20050;-63
2023/08/27 03:37:16;;;;;;;2.90;1.95;;;12.40;99.90;;;;;;4967750;28;20074;-64
2023/08/27 03:39:43;;;;;;;3.78;1.77;;;12.40;99.90;;;;;;4966664;28;20565;-63
2023/08/27 03:42:09;;;;;;;2.70;1.73;;;12.30;99.90;;;;;;4969323;28;20046;-63
2023/08/27 03:44:36;;;;;;;4.07;1.92;;;12.30;99.90;;;;;;4966388;28;20399;-63
2023/08/27 03:47:06;;;;;;;6.22;2.15;;;12.30;99.90;;;;;;4968635;28;20050;-63
2023/08/27 03:49:33;;;;;;;4.22;2.15;;;12.20;99.90;;;;;;4968726;28;20055;-63
2023/08/27 03:52:00;;;;;;;5.03;1.98;;;12.20;99.90;;;;;;4968150;28;20708;-63
2023/08/27 03:54:27;;;;;;;3.47;1.90;;;12.20;99.90;;;;;;4968846;28;20421;-63
2023/08/27 03:56:54;;;;;;;3.58;2.05;;;12.20;99.90;;;;;;4968027;28;20103;-63
2023/08/27 03:59:21;;;;;;;2.95;2.10;;;12.20;99.90;;;;;;4968331;28;20043;-64
2023/08/27 04:01:49;;;;;;;3.78;2.00;;;12.20;99.90;;;;;;4968808;28;20117;-63
2023/08/27 04:04:16;;;;;;;3.28;2.00;;;12.20;99.90;;;;;;4966319;28;20058;-65
2023/08/27 04:06:42;;;;;;;3.42;1.95;;;12.20;99.90;;;;;;4974077;28;20421;-63
2023/08/27 04:09:09;;;;;;;4.90;2.10;;;12.20;99.90;;;;;;4971150;28;20043;-63
2023/08/27 04:11:36;;;;;;;4.75;2.00;;;12.20;99.90;;;;;;4968766;28;20051;-64
2023/08/27 04:14:04;;;;;;;5.50;2.38;;;12.20;99.90;;;;;;4968593;28;20046;-65
2023/08/27 04:16:30;;;;;;;2.67;1.98;;;12.20;99.90;;;;;;4968593;28;20196;-64
2023/08/27 04:18:57;;;;;;;3.22;2.03;;;12.20;99.90;;;;;;4968574;28;20482;-65
2023/08/27 04:21:24;;;;;;;6.28;2.00;;;12.10;99.90;;;;;;4968736;28;20513;-64
2023/08/27 04:23:51;;;;;;;3.38;1.73;;;12.10;99.90;;;;;;4968467;28;20101;-65
2023/08/27 04:26:18;;;;;;;4.53;1.63;;;12.10;99.90;;;;;;4967570;28;20105;-63
2023/08/27 04:28:45;;;;;;;6.53;1.88;;;12.20;99.90;;;;;;4968451;28;20106;-65
2023/08/27 04:31:12;;;;;;;3.75;2.10;;;12.20;99.90;;;;;;4968500;28;20129;-65
2023/08/27 04:33:38;;;;;;;8.15;2.13;;;12.20;99.90;;;;;;4969072;28;20046;-65
2023/08/27 04:36:05;;;;;;;3.83;2.15;;;12.00;99.90;;;;;;4966012;28;20093;-64
2023/08/27 04:38:32;;;;;;;4.65;1.77;;;12.10;99.90;;;;;;4968675;28;20043;-64
2023/08/27 04:40:59;;;;;;;2.97;1.98;;;12.10;99.90;;;;;;4967031;28;20054;-64
2023/08/27 04:43:25;;;;;;;7.75;2.13;;;12.10;99.90;;;;;;4968198;28;20075;-64
2023/08/27 04:45:53;;;;;;;2.85;1.83;;;12.10;99.90;;;;;;4968014;28;20055;-64
2023/08/27 04:48:20;;;;;;;2.67;1.45;;;12.10;99.90;;;;;;4966331;28;20047;-64
2023/08/27 04:50:46;;;;;;;3.85;2.00;;;12.10;99.90;;;;;;4964514;28;20097;-64
2023/08/27 04:53:13;;;;;;;2.92;1.98;;;12.00;99.90;;;;;;4972269;28;20075;-65
2023/08/27 04:55:40;;;;;;;3.50;1.65;;;12.00;99.90;;;;;;4971897;28;20047;-64
2023/08/27 04:58:08;;;;;;;5.75;2.08;;;11.90;99.90;;;;;;4972178;28;20124;-64
2023/08/27 05:00:35;;;;;;;4.20;2.00;;;11.90;99.90;;;;;;4971520;28;20053;-62
2023/08/27 05:03:02;;;;;;;8.45;1.92;;;11.90;99.90;;;;;;4972808;28;20047;-62
2023/08/27 05:05:29;;;;;;;2.28;1.77;;;11.80;99.90;;;;;;4972230;28;20258;-64
2023/08/27 05:07:56;;;;;;;5.45;1.90;;;11.80;99.90;;;;;;4972375;28;20042;-63
2023/08/27 05:10:24;;;;;;;7.38;1.95;;;11.80;99.90;;;;;;4970914;28;20101;-63
2023/08/27 05:12:50;;;;;;;3.00;1.70;;;11.90;99.90;;;;;;4971669;28;20042;-64
2023/08/27 05:15:20;;;;;;;2.83;2.05;;;11.80;99.90;;;;;;4971204;28;20086;-63
2023/08/27 05:17:48;;;;;;;5.00;2.03;;;11.80;99.90;;;;;;4970126;28;20069;-62
2023/08/27 05:20:15;;;;;;;3.40;1.85;;;11.80;99.90;;;;;;4958751;28;20533;-63
2023/08/27 05:22:42;;;;;;;9.68;2.08;;;11.80;99.90;;;;;;4970869;28;20493;-63
2023/08/27 05:25:09;;;;;;;4.97;2.08;;;11.80;99.90;;;;;;4968995;28;20054;-63
2023/08/27 05:27:43;;;;;;;2.53;1.60;;;11.80;99.90;;;;;;4971422;28;20047;-63
2023/08/27 05:30:12;;;;;;;2.50;1.60;;;11.70;99.90;;;;;;4971204;28;20051;-63
2023/08/27 05:32:40;;;;;;;7.30;2.08;;;11.80;99.90;;;;;;4971166;28;20513;-64
2023/08/27 05:35:07;;;;;;;3.40;2.03;;;11.80;99.90;;;;;;4971244;28;20125;-64
2023/08/27 05:37:34;;;;;;;5.22;1.75;;;11.80;99.90;;;;;;4971246;28;20047;-63
2023/08/27 05:40:01;;;;;;;4.35;2.17;;;11.80;99.90;;;;;;4971754;28;20058;-64
2023/08/27 05:42:28;;;;;;;4.75;1.85;;;11.80;99.90;;;;;;4969793;28;20051;-63
2023/08/27 05:44:56;;;;;;;6.93;2.15;;;11.80;99.90;;;;;;4971153;28;20303;-63
2023/08/27 05:47:23;;;;;;;4.28;1.77;;;11.80;99.90;;;;;;4970366;28;20051;-62
2023/08/27 05:49:49;;;;;;;5.40;1.75;;;11.80;99.90;;;;;;4970817;28;20450;-63
2023/08/27 05:52:16;;;;;;;5.28;1.95;;;11.90;99.90;;;;;;4969783;28;20047;-63
2023/08/27 05:54:43;;;;;;;4.70;2.00;;;11.80;99.90;;;;;;4971006;28;20046;-63
2023/08/27 05:57:10;;;;;;;3.55;1.73;;;11.90;99.90;;;;;;4971142;28;20043;-63
2023/08/27 05:59:36;;;;;;;2.80;1.63;;;11.90;99.90;;;;;;4970665;28;20047;-64
2023/08/27 06:02:04;;;;;;;2.53;1.85;;;12.00;99.90;;;;;;4969466;28;20066;-63
2023/08/27 06:04:31;;;;;;;5.85;1.98;;;12.00;99.90;;;;;;4970470;28;20051;-63
2023/08/27 06:06:58;;;;;;;5.00;1.98;;;12.00;99.90;;;;;;4971015;28;20113;-64
2023/08/27 06:09:24;;;;;;;3.33;1.63;;;12.00;99.90;;;;;;4969542;28;20043;-64
2023/08/27 06:11:51;;;;;;;5.15;1.95;;;12.00;99.90;;;;;;4970479;28;20062;-64
2023/08/27 06:14:18;;;;;;;3.00;1.60;;;12.00;99.90;;;;;;4970520;28;20047;-64
2023/08/27 06:16:45;;;;;;;2.78;1.58;;;12.00;99.90;;;;;;4970927;28;20448;-63
2023/08/27 06:19:12;;;;;;;2.95;1.73;;;12.10;99.90;;;;;;4970011;28;20145;-62
2023/08/27 06:21:38;;;;;;;2.88;1.80;;;12.10;99.90;;;;;;4624350;28;10000499;-63
2023/08/27 06:24:06;;;;;;;2.35;1.50;;;12.10;99.90;;;;;;4967010;28;20062;-64
2023/08/27 06:26:33;;;;;;;4.97;1.80;;;12.20;99.90;;;;;;4967095;28;20058;-64
2023/08/27 06:29:01;;;;;;;4.05;1.70;;;12.20;99.90;;;;;;4966653;28;20050;-64
2023/08/27 06:31:28;;;;;;;4.28;1.92;;;12.20;99.90;;;;;;4966314;28;20080;-62
2023/08/27 06:33:54;;;;;;;4.78;1.85;;;12.20;99.90;;;;;;4966387;28;20093;-65
2023/08/27 06:36:21;;;;;;;6.45;2.13;;;12.20;99.90;;;;;;4967098;28;20086;-64
2023/08/27 06:38:48;;;;;;;3.25;2.13;;;12.10;99.90;;;;;;4966664;28;20070;-64
2023/08/27 06:41:15;;;;;;;3.55;1.70;;;12.10;99.90;;;;;;4966389;28;20062;-65
2023/08/27 06:43:41;;;;;;;3.75;1.67;;;12.20;99.90;;;;;;4966544;28;20047;-63
2023/08/27 06:46:11;;;;;;;4.70;3.75;;;12.20;99.90;;;;;;4965942;28;20122;-64
2023/08/27 06:48:38;;;;;;;6.13;1.70;;;12.30;99.90;;;;;;4966787;28;20110;-65
2023/08/27 06:51:05;;;;;;;4.75;1.67;;;12.30;99.90;;;;;;4966708;28;20058;-64
2023/08/27 06:53:32;;;;;;;6.68;1.95;;;12.40;99.90;;;;;;4966350;28;20054;-66
2023/08/27 06:55:59;;;;;;;3.83;1.70;;;12.40;99.90;;;;;;4965707;28;20070;-64
2023/08/27 06:58:26;;;;;;;7.78;1.92;;;12.50;99.90;;;;;;4965440;28;20054;-63
2023/08/27 07:00:52;;;;;;;4.13;1.88;;;12.50;99.90;;;;;;4966528;28;20132;-64
2023/08/27 07:03:19;;;;;;;3.60;1.75;;;12.50;99.90;;;;;;4966881;28;20051;-64
2023/08/27 07:05:46;;;;;;;4.18;1.90;;;12.50;99.90;;;;;;4965462;28;20058;-64
2023/08/27 07:08:13;;;;;;;5.32;1.98;;;12.60;99.90;;;;;;4964033;28;20043;-64
2023/08/27 07:10:40;;;;;;;3.65;1.60;;;12.60;99.90;;;;;;4965174;28;20054;-64
2023/08/27 07:13:07;;;;;;;4.43;1.60;;;12.70;99.90;;;;;;4962399;28;20039;-63
2023/08/27 07:15:34;;;;;;;2.58;1.90;;;12.60;99.90;;;;;;4962659;28;20051;-64
2023/08/27 07:18:01;;;;;;;4.53;1.70;;;12.60;99.90;;;;;;4965746;28;20078;-63
2023/08/27 07:20:29;;;;;;;8.60;2.28;;;12.70;99.90;;;;;;4962896;28;20288;-65
2023/08/27 07:22:56;;;;;;;5.97;2.15;;;12.80;99.90;;;;;;4961877;28;20097;-64
2023/08/27 07:25:23;;;;;;;4.82;2.30;;;12.80;99.90;;;;;;4961822;28;20442;-64
2023/08/27 07:27:50;;;;;;;5.85;1.58;;;12.80;99.90;;;;;;4965101;28;20078;-64
2023/08/27 07:30:17;;;;;;;6.15;2.17;;;12.80;99.90;;;;;;4964853;28;20050;-64
2023/08/27 07:32:44;;;;;;;4.43;1.48;;;12.90;99.90;;;;;;4965789;28;20490;-63
2023/08/27 07:35:11;;;;;;;5.20;2.10;;;12.90;99.90;;;;;;4965417;28;20050;-63
2023/08/27 07:37:37;;;;;;;3.80;1.67;;;12.90;99.90;;;;;;4963454;28;20058;-64
2023/08/27 07:40:09;;;;;;;4.18;2.72;;;13.00;99.90;;;;;;4965339;28;20156;-62
2023/08/27 07:42:37;;;;;;;2.90;1.77;;;13.00;99.90;;;;;;4965393;28;20057;-64
2023/08/27 07:45:04;;;;;;;3.38;1.20;;;13.10;99.90;;;;;;4964460;28;20055;-62
2023/08/27 07:47:30;;;;;;;5.32;1.98;;;13.10;99.90;;;;;;4964375;28;20074;-62
2023/08/27 07:49:57;;;;;;;2.35;1.25;;;13.20;99.90;;;;;;4964291;28;20089;-65
2023/08/27 07:52:24;;;;;;;3.90;1.75;;;13.30;99.90;;;;;;4965678;28;20082;-64
2023/08/27 07:54:52;;;;;;;3.08;1.50;;;13.40;99.90;;;;;;4965900;28;20058;-63
2023/08/27 07:57:18;;;;;;;9.02;1.63;;;13.40;99.90;;;;;;4966352;28;20395;-63
2023/08/27 07:59:45;;;;;;;3.25;1.15;;;13.50;99.90;;;;;;4965648;28;20050;-63
2023/08/27 08:02:12;;;;;;;4.57;1.58;;;13.50;99.90;;;;;;4964043;28;20051;-63
2023/08/27 08:04:39;;;;;;;4.53;1.52;;;13.60;99.90;;;;;;4965391;28;20047;-63
2023/08/27 08:07:06;;;;;;;2.28;1.90;;;13.60;99.90;;;;;;4964840;28;20054;-63
2023/08/27 08:09:32;;;;;;;4.22;1.50;;;13.70;99.90;;;;;;4959531;28;20102;-63
2023/08/27 08:11:59;;;;;;;7.53;1.65;;;13.80;99.90;;;;;;4965331;28;20090;-61
2023/08/27 08:14:26;;;;;;;3.38;1.35;;;13.80;99.90;;;;;;4965653;28;20304;-63
2023/08/27 08:16:53;;;;;;;4.97;1.27;;;13.80;99.90;;;;;;4965102;28;20059;-64
2023/08/27 08:19:20;;;;;;;3.60;1.50;;;13.90;99.90;;;;;;4964610;28;20315;-64
2023/08/27 08:21:47;;;;;;;4.25;1.30;;;13.90;99.90;;;;;;4964414;28;20121;-62
2023/08/27 08:24:13;;;;;;;5.60;1.20;;;14.10;99.90;;;;;;4966149;28;20051;-62
2023/08/27 08:26:42;;;;;;;3.03;1.50;;;14.10;99.90;;;;;;4969183;28;20058;-63
2023/08/27 08:29:09;;;;;;;3.35;1.50;;;14.10;99.90;;;;;;4969132;28;20047;-64
2023/08/27 08:31:36;;;;;;;3.35;1.42;;;14.30;99.90;;;;;;4969276;28;20055;-62
2023/08/27 08:34:03;;;;;;;4.28;1.10;;;14.40;99.90;;;;;;4968032;28;20046;-64
2023/08/27 08:36:30;;;;;;;10.00;3.33;;;14.50;99.90;;;;;;4967734;28;20520;-63
2023/08/27 08:38:59;;;;;;;2.05;1.23;;;14.50;99.90;;;;;;4968272;28;20561;-64
2023/08/27 08:41:28;;;;;;;3.00;1.20;;;14.70;99.90;;;;;;4967229;28;20094;-61
2023/08/27 08:44:00;;;;;;;2.78;1.08;;;14.80;99.90;;;;;;4969000;28;20294;-61
2023/08/27 08:46:28;;;;;;;6.82;1.55;;;14.90;99.90;;;;;;4966757;28;20145;-62
2023/08/27 08:48:55;;;;;;;3.42;1.30;;;14.90;99.90;;;;;;4964525;28;20070;-61
2023/08/27 08:51:25;;;;;;;4.13;1.13;;;15.00;99.90;;;;;;4966118;28;20090;-62
2023/08/27 08:53:53;;;;;;;4.63;1.58;;;14.90;99.90;;;;;;4962332;28;20089;-61
2023/08/27 08:56:22;;;;;;;8.77;2.10;;;15.00;99.90;;;;;;4951790;28;20098;-63
2023/08/27 08:58:56;;;;;;;3.00;1.70;;;15.10;99.90;;;;;;4950212;28;20098;-62
2023/08/27 09:01:23;;;;;;;1.80;1.33;;;15.20;99.90;;;;;;4967860;28;20054;-61
2023/08/27 09:03:51;;;;;;;4.43;1.20;;;15.20;99.90;;;;;;4951230;28;20055;-60
2023/08/27 09:06:21;;;;;;;4.35;1.35;;;15.30;99.90;;;;;;4968388;28;20050;-60
2023/08/27 09:08:49;;;;;;;5.75;1.35;;;15.40;99.90;;;;;;4967875;28;20042;-60
2023/08/27 09:11:16;;;;;;;2.40;1.00;;;15.50;99.90;;;;;;4943115;28;20141;-60
2023/08/27 09:13:43;;;;;;;9.38;1.23;;;15.60;99.90;;;;;;4967868;28;20422;-60
2023/08/27 09:16:10;;;;;;;5.93;1.42;;;15.70;99.90;;;;;;4967700;28;20548;-59
2023/08/27 09:18:37;;;;;;;2.75;1.30;;;15.80;99.90;;;;;;4967282;28;20180;-60
2023/08/27 09:21:06;;;;;;;1.98;0.98;;;15.90;99.90;;;;;;4962700;28;20054;-60
2023/08/27 09:23:37;;;;;;;5.50;1.30;;;16.00;99.90;;;;;;4966633;28;20142;-61
2023/08/27 09:26:04;;;;;;;5.05;1.50;;;16.10;99.90;;;;;;4948401;28;20129;-60
2023/08/27 09:28:33;;;;;;;4.47;1.70;;;16.10;99.90;;;;;;4966366;28;20089;-60
2023/08/27 09:31:01;;;;;;;4.78;1.77;;;16.10;99.90;;;;;;4966857;28;20133;-59
2023/08/27 09:33:39;;;;;;;4.65;1.67;;;16.10;99.90;;;;;;4967296;28;20425;-60
2023/08/27 09:36:07;;;;;;;5.15;1.48;;;16.10;99.90;;;;;;4965906;28;20038;-60
2023/08/27 09:38:34;;;;;;;3.33;1.30;;;16.40;99.90;;;;;;4967640;28;20046;-61
2023/08/27 09:41:17;;;;;;;2.05;1.00;;;16.80;99.90;;;;;;4965737;28;20082;-60
2023/08/27 09:43:54;;;;;;;3.87;1.47;;;16.60;99.90;;;;;;4947527;28;20098;-61
2023/08/27 09:46:24;;;;;;;1.67;0.80;;;16.70;99.90;;;;;;4965005;28;20059;-62
2023/08/27 09:48:58;;;;;;;4.28;0.80;;;17.00;99.90;;;;;;4966834;28;20050;-61
2023/08/27 09:51:26;;;;;;;2.42;1.10;;;17.30;99.90;;;;;;4949359;28;20051;-61
2023/08/27 09:53:53;;;;;;;5.20;1.10;;;17.60;99.90;;;;;;4965665;28;20051;-59
2023/08/27 09:56:25;;;;;;;2.75;1.35;;;17.80;99.90;;;;;;4950305;28;20490;-61
2023/08/27 09:58:54;;;;;;;2.15;0.90;;;17.90;99.90;;;;;;4966629;28;20105;-60
2023/08/27 10:01:23;;;;;;;6.15;1.15;;;18.10;99.90;;;;;;4966818;28;20057;-61
2023/08/27 10:03:49;;;;;;;3.63;0.80;;;18.10;99.90;;;;;;4967320;28;20046;-61
2023/08/27 10:06:16;;;;;;;2.78;1.23;;;18.10;99.90;;;;;;4965517;28;20137;-60
2023/08/27 10:08:51;;;;;;;2.47;0.80;;;17.90;99.90;;;;;;4966838;28;20051;-61
2023/08/27 10:11:18;;;;;;;2.67;1.10;;;17.70;99.90;;;;;;4946736;28;20169;-61
2023/08/27 10:13:45;;;;;;;1.67;0.90;;;17.60;99.90;;;;;;4966132;28;20069;-60
2023/08/27 10:16:13;;;;;;;2.17;0.80;;;17.70;99.90;;;;;;4972198;28;20124;-62
2023/08/27 10:18:40;;;;;;;1.67;0.75;;;18.00;99.90;;;;;;4967487;28;20066;-61
2023/08/27 10:21:10;;;;;;;1.40;1.00;;;18.00;99.90;;;;;;4963642;28;20410;-61
2023/08/27 10:23:38;;;;;;;2.78;1.05;;;17.90;99.90;;;;;;4966508;28;20200;-60
2023/08/27 10:26:05;;;;;;;1.73;0.85;;;17.90;99.90;;;;;;4964554;28;21033;-59
2023/08/27 10:28:35;;;;;;;1.42;0.90;;;17.70;99.90;;;;;;4964222;28;20058;-60
2023/08/27 10:31:03;;;;;;;2.53;1.65;;;17.80;99.90;;;;;;4965725;28;20051;-60
2023/08/27 10:33:31;;;;;;;3.90;0.70;;;17.80;99.90;;;;;;4966176;28;20053;-60
2023/08/27 10:36:01;;;;;;;2.97;1.08;;;17.90;99.90;;;;;;4961460;28;20054;-60
2023/08/27 10:38:28;;;;;;;2.83;1.15;;;18.00;99.90;;;;;;4964761;28;20539;-59
2023/08/27 10:40:55;;;;;;;9.45;1.20;;;18.20;99.90;;;;;;4971370;28;20557;-61
2023/08/27 10:43:22;;;;;;;3.05;0.90;;;18.30;99.90;;;;;;4964180;28;20046;-61
2023/08/27 10:45:50;;;;;;;1.02;0.68;;;18.30;99.90;;;;;;4964386;28;20062;-60
2023/08/27 10:48:24;;;;;;;1.98;0.73;;;18.40;99.90;;;;;;4965247;28;20050;-60
2023/08/27 10:51:06;;;;;;;4.05;1.20;;;18.20;99.90;;;;;;4962692;28;20484;-60
2023/08/27 10:53:40;;;;;;;2.25;0.90;;;18.10;99.90;;;;;;4965618;28;20117;-59
2023/08/27 10:56:26;;;;;;;;;;;18.30;99.90;;;;;;4965186;28;20050;-61
2023/08/27 10:58:59;;;;;;;2.72;0.70;;;18.40;99.90;;;;;;4963734;28;19926;-59
2023/08/27 11:01:26;;;;;;;1.60;1.33;;;18.50;99.90;;;;;;4964345;28;20055;-60
2023/08/27 11:03:57;;;;;;;1.73;0.77;;;18.70;99.90;;;;;;4965462;28;20125;-60
2023/08/27 11:06:47;;;;;;;7.97;1.63;;;18.60;99.90;;;;;;4964408;28;20509;-60
2023/08/27 11:09:27;;;;;;;2.72;1.00;;;18.50;99.90;;;;;;4948574;28;20506;-63
2023/08/27 11:11:55;;;;;;;2.58;0.77;;;18.50;99.90;;;;;;4964014;28;20139;-56
2023/08/27 11:14:23;;;;;;;4.03;1.77;;;18.60;99.90;;;;;;4965446;28;20055;-61
2023/08/27 11:17:00;;;;;;;1.30;0.80;;;18.70;99.90;;;;;;4964929;28;20054;-61
2023/08/27 11:19:32;;;;;;;1.67;0.68;;;18.80;99.90;;;;;;4965242;28;20058;-61
2023/08/27 11:22:18;;;;;;;1.77;0.90;;;18.80;99.90;;;;;;4964904;28;20062;-60
2023/08/27 11:24:53;;;;;;;2.28;0.65;;;18.70;99.90;;;;;;4964931;28;20055;-60
2023/08/27 11:27:24;;;;;;;4.63;1.83;;;18.80;99.90;;;;;;4944123;28;20047;-61
2023/08/27 11:29:52;;;;;;;5.78;1.10;;;19.00;99.90;;;;;;4965384;28;20046;-60
2023/08/27 11:32:20;;;;;;;3.53;0.90;;;19.20;99.90;;;;;;4965394;28;20068;-60
2023/08/27 11:34:51;;;;;;;2.33;1.65;;;19.20;99.90;;;;;;4964374;28;20047;-60
2023/08/27 11:37:20;;;;;;;4.78;0.93;;;19.20;99.90;;;;;;4965601;28;20047;-60
2023/08/27 11:39:48;;;;;;;2.60;0.85;;;19.30;99.90;;;;;;4965218;28;20078;-60
2023/08/27 11:42:15;;;;;;;2.50;0.70;;;19.30;99.90;;;;;;4954449;28;20457;-60
2023/08/27 11:44:52;;;;;;;1.33;0.52;;;19.30;99.90;;;;;;4963132;28;20501;-62
2023/08/27 11:47:20;;;;;;;3.05;0.80;;;19.20;99.90;;;;;;4964031;28;20058;-61
2023/08/27 11:49:48;;;;;;;2.15;1.10;;;19.10;99.90;;;;;;4964665;28;20305;-61
2023/08/27 11:52:15;;;;;;;5.53;1.40;;;19.00;99.90;;;;;;4965690;28;20055;-60
2023/08/27 11:54:43;;;;;;;1.42;0.60;;;19.00;99.90;;;;;;4965457;28;20094;-61
2023/08/27 11:57:10;;;;;;;5.68;1.30;;;19.20;99.90;;;;;;4963927;28;20493;-61
2023/08/27 11:59:38;;;;;;;7.15;2.40;;;19.50;99.90;;;;;;4967282;28;20043;-60
2023/08/27 12:02:07;;;;;;;3.33;0.90;;;19.50;99.90;;;;;;4962904;28;20054;-61
2023/08/27 12:04:34;;;;;;;2.45;1.30;;;19.60;99.90;;;;;;4951327;28;20484;-61
2023/08/27 12:07:01;;;;;;;2.33;1.20;;;19.60;99.90;;;;;;4967904;28;20490;-61
2023/08/27 12:09:29;;;;;;;1.60;0.57;;;19.80;99.90;;;;;;4967657;28;20047;-61
2023/08/27 12:12:03;;;;;;;2.92;0.80;;;19.60;99.90;;;;;;4967958;28;20101;-60
2023/08/27 12:14:30;;;;;;;3.08;1.63;;;19.60;99.90;;;;;;4968946;28;20050;-61
2023/08/27 12:17:07;;;;;;;2.38;1.08;;;19.60;99.90;;;;;;4969262;28;20051;-60
2023/08/27 12:19:36;;;;;;;1.58;0.63;;;19.70;99.90;;;;;;4964013;28;20105;-62
2023/08/27 12:22:03;;;;;;;2.13;1.10;;;19.60;99.90;;;;;;4968679;28;20137;-62
2023/08/27 12:24:32;;;;;;;2.70;0.77;;;19.60;99.90;;;;;;4968807;28;20046;-62
2023/08/27 12:27:06;;;;;;;2.42;1.23;;;19.60;99.90;;;;;;4950281;28;20077;-60
2023/08/27 12:29:37;;;;;;;3.00;0.95;;;19.60;99.90;;;;;;4967167;28;20207;-60
2023/08/27 12:32:11;;;;;;;3.10;1.88;;;19.60;99.90;;;;;;4968644;28;20048;-62
2023/08/27 12:34:39;;;;;;;4.35;1.00;;;19.40;99.90;;;;;;4966716;28;20189;-60
2023/08/27 12:37:06;;;;;;;3.60;1.05;;;19.30;99.90;;;;;;4968169;28;20054;-61
2023/08/27 12:39:33;;;;;;;1.42;0.90;;;19.40;99.90;;;;;;4969292;28;20050;-61
2023/08/27 12:42:00;;;;;;;4.72;1.15;;;19.30;99.90;;;;;;4968850;28;20045;-62
2023/08/27 12:44:28;;;;;;;3.67;1.45;;;19.20;99.90;;;;;;4968325;28;20051;-61
2023/08/27 12:46:54;;;;;;;2.05;1.15;;;19.00;99.90;;;;;;4951502;28;20584;-61
2023/08/27 12:49:21;;;;;;;2.65;1.08;;;19.10;99.90;;;;;;4968209;28;20042;-62
2023/08/27 12:51:48;;;;;;;1.83;0.65;;;19.00;99.90;;;;;;4968610;28;20046;-60